createdAt,value
2019-06-07T00:00:29.758Z,0.00
2019-06-07T00:01:11.446Z,0.00
2019-06-07T00:02:16.495Z,0.00
2019-06-07T00:03:23.978Z,0.00
2019-06-07T00:04:13.650Z,0.00
2019-06-07T00:05:14.947Z,0.00
2019-06-07T00:06:15.095Z,0.00
2019-06-07T00:07:14.341Z,0.00
2019-06-07T00:08:22.636Z,0.00
2019-06-07T00:09:15.317Z,0.00
2019-06-07T00:10:34.574Z,0.00
2019-06-07T00:11:18.108Z,0.00
2019-06-07T00:12:17.584Z,0.00
2019-06-07T00:13:19.850Z,0.00
2019-06-07T00:14:16.029Z,0.00
2019-06-07T00:15:18.131Z,0.00
2019-06-07T00:16:18.963Z,0.00
2019-06-07T00:17:17.555Z,0.00
2019-06-07T00:18:20.042Z,0.00
2019-06-07T00:19:16.247Z,0.00
2019-06-07T00:20:19.473Z,0.00
2019-06-07T00:21:17.852Z,0.00
2019-06-07T00:22:30.123Z,0.00
2019-06-07T00:23:20.199Z,0.00
2019-06-07T00:24:16.825Z,0.00
2019-06-07T00:25:22.863Z,0.00
2019-06-07T00:26:18.192Z,0.00
2019-06-07T00:27:18.253Z,0.00
2019-06-07T00:28:17.358Z,0.00
2019-06-07T00:29:18.863Z,0.00
2019-06-07T00:30:39.563Z,0.00
2019-06-07T00:31:22.283Z,0.00
2019-06-07T00:32:19.099Z,0.00
2019-06-07T00:33:21.723Z,0.00
2019-06-07T00:34:20.035Z,0.00
2019-06-07T00:35:22.137Z,0.00
2019-06-07T00:36:20.654Z,0.00
2019-06-07T00:37:20.638Z,0.00
2019-06-07T00:38:20.459Z,0.00
2019-06-07T00:39:22.912Z,0.00
2019-06-07T00:40:29.997Z,0.00
2019-06-07T00:41:22.269Z,0.00
2019-06-07T00:42:21.622Z,0.00
2019-06-07T00:43:25.847Z,0.00
2019-06-07T00:44:21.511Z,0.00
2019-06-07T00:45:22.431Z,0.00
2019-06-07T00:46:21.635Z,0.00
2019-06-07T00:47:24.889Z,0.00
2019-06-07T00:48:30.830Z,0.00
2019-06-07T00:49:36.058Z,0.00
2019-06-07T00:50:23.929Z,0.00
2019-06-07T00:51:21.924Z,0.00
2019-06-07T00:53:11.839Z,0.00
2019-06-07T00:53:31.064Z,0.00
2019-06-07T00:54:24.063Z,0.00
2019-06-07T00:55:27.507Z,0.00
2019-06-07T00:56:23.506Z,0.00
2019-06-07T00:57:24.459Z,0.00
2019-06-07T00:58:27.506Z,0.00
2019-06-07T00:59:28.792Z,0.00
2019-06-07T01:00:25.518Z,0.00
2019-06-07T01:01:25.595Z,0.00
2019-06-07T01:02:28.804Z,0.00
2019-06-07T01:03:25.804Z,0.00
2019-06-07T01:04:26.045Z,0.00
2019-06-07T01:05:31.153Z,0.00
2019-06-07T01:06:26.001Z,0.00
2019-06-07T01:07:25.987Z,0.00
2019-06-07T01:08:28.162Z,0.00
2019-06-07T01:09:26.078Z,0.00
2019-06-07T01:10:51.540Z,0.00
2019-06-07T01:11:26.175Z,0.00
2019-06-07T01:12:27.004Z,0.00
2019-06-07T01:13:26.979Z,0.00
2019-06-07T01:14:28.733Z,0.00
2019-06-07T01:15:29.033Z,0.00
2019-06-07T01:16:26.620Z,0.00
2019-06-07T01:17:39.191Z,0.00
2019-06-07T01:18:37.705Z,0.00
2019-06-07T01:19:28.489Z,0.00
2019-06-07T01:20:27.073Z,0.00
2019-06-07T01:21:29.953Z,0.00
2019-06-07T01:22:29.186Z,0.00
2019-06-07T01:24:05.531Z,0.00
2019-06-07T01:24:29.492Z,0.00
2019-06-07T01:25:29.044Z,0.00
2019-06-07T01:26:30.384Z,0.00
2019-06-07T01:27:28.841Z,0.00
2019-06-07T01:28:30.074Z,0.00
2019-06-07T01:29:30.841Z,0.00
2019-06-07T01:30:30.987Z,0.00
2019-06-07T01:31:31.627Z,0.00
2019-06-07T01:32:31.734Z,0.00
2019-06-07T01:33:49.883Z,0.00
2019-06-07T01:34:31.500Z,0.00
2019-06-07T01:35:30.213Z,0.00
2019-06-07T01:36:31.103Z,0.00
2019-06-07T01:37:30.532Z,0.00
2019-06-07T01:38:32.117Z,0.00
2019-06-07T01:39:31.819Z,0.00
2019-06-07T01:40:33.027Z,0.00
2019-06-07T01:41:32.495Z,0.00
2019-06-07T01:42:31.231Z,0.00
2019-06-07T01:43:31.411Z,0.00
2019-06-07T01:44:31.523Z,0.00
2019-06-07T01:45:31.703Z,0.00
2019-06-07T01:46:31.918Z,0.00
2019-06-07T01:47:32.471Z,0.00
2019-06-07T01:48:48.413Z,0.00
2019-06-07T01:49:32.536Z,0.00
2019-06-07T01:50:32.737Z,0.00
2019-06-07T01:51:32.948Z,0.00
2019-06-07T01:52:33.164Z,0.00
2019-06-07T01:53:33.370Z,0.00
2019-06-07T01:54:57.168Z,0.00
2019-06-07T01:55:33.787Z,0.00
2019-06-07T01:56:34.003Z,0.00
2019-06-07T01:57:47.409Z,0.00
2019-06-07T01:58:34.424Z,0.00
2019-06-07T01:59:34.645Z,0.00
2019-06-07T02:00:34.859Z,0.00
2019-06-07T02:01:36.990Z,0.00
2019-06-07T02:02:35.219Z,0.00
2019-06-07T02:03:35.417Z,0.00
2019-06-07T02:04:35.666Z,0.00
2019-06-07T02:05:35.885Z,0.00
2019-06-07T02:06:37.999Z,0.00
2019-06-07T02:07:36.203Z,0.00
2019-06-07T02:08:36.421Z,0.00
2019-06-07T02:09:38.535Z,0.00
2019-06-07T02:10:38.902Z,0.00
2019-06-07T02:11:36.982Z,0.00
2019-06-07T02:12:43.298Z,0.00
2019-06-07T02:13:38.997Z,0.00
2019-06-07T02:14:37.577Z,0.00
2019-06-07T02:15:37.780Z,0.00
2019-06-07T02:16:37.998Z,0.00
2019-06-07T02:17:39.991Z,0.00
2019-06-07T02:18:58.812Z,0.00
2019-06-07T02:19:40.509Z,0.00
2019-06-07T02:20:40.547Z,0.00
2019-06-07T02:21:38.893Z,0.00
2019-06-07T02:22:41.995Z,0.00
2019-06-07T02:23:39.322Z,0.00
2019-06-07T02:24:39.550Z,0.00
2019-06-07T02:25:48.685Z,0.00
2019-06-07T02:26:39.949Z,0.00
2019-06-07T02:27:40.166Z,0.00
2019-06-07T02:28:45.519Z,0.00
2019-06-07T02:29:40.580Z,0.00
2019-06-07T02:30:52.490Z,0.00
2019-06-07T02:31:40.915Z,0.00
2019-06-07T02:32:41.149Z,0.00
2019-06-07T02:33:41.360Z,0.00
2019-06-07T02:34:41.597Z,0.00
2019-06-07T02:35:41.784Z,0.00
2019-06-07T02:36:41.981Z,0.00
2019-06-07T02:37:42.168Z,0.00
2019-06-07T02:38:44.024Z,0.00
2019-06-07T02:39:42.483Z,0.00
2019-06-07T02:40:42.688Z,0.00
2019-06-07T02:41:42.905Z,0.00
2019-06-07T02:42:43.106Z,0.00
2019-06-07T02:43:43.302Z,0.00
2019-06-07T02:44:43.530Z,0.00
2019-06-07T02:45:43.994Z,0.00
2019-06-07T02:46:49.450Z,0.00
2019-06-07T02:47:44.066Z,0.00
2019-06-07T02:48:44.283Z,0.00
2019-06-07T02:49:44.773Z,0.00
2019-06-07T02:50:44.747Z,0.00
2019-06-07T02:51:44.918Z,0.00
2019-06-07T02:52:45.129Z,0.00
2019-06-07T02:53:45.328Z,0.00
2019-06-07T02:54:47.498Z,0.00
2019-06-07T02:56:34.343Z,0.00
2019-06-07T02:56:58.105Z,0.00
2019-06-07T02:57:46.088Z,0.00
2019-06-07T02:58:46.301Z,0.00
2019-06-07T03:00:06.290Z,0.00
2019-06-07T03:01:03.991Z,0.00
2019-06-07T03:01:46.852Z,0.00
2019-06-07T03:02:49.012Z,0.00
2019-06-07T03:03:47.222Z,0.00
2019-06-07T03:04:47.432Z,5.63
2019-06-07T03:05:47.669Z,5.63
2019-06-07T03:06:47.864Z,5.63
2019-06-07T03:07:49.998Z,5.63
2019-06-07T03:08:48.212Z,5.63
2019-06-07T03:09:49.421Z,5.63
2019-06-07T03:10:48.634Z,5.63
2019-06-07T03:11:48.840Z,5.63
2019-06-07T03:12:49.089Z,5.63
2019-06-07T03:13:49.269Z,5.63
2019-06-07T03:14:49.472Z,5.63
2019-06-07T03:15:51.498Z,11.25
2019-06-07T03:16:49.845Z,11.25
2019-06-07T03:17:50.062Z,11.25
2019-06-07T03:18:50.276Z,11.25
2019-06-07T03:19:50.477Z,11.25
2019-06-07T03:21:04.631Z,11.25
2019-06-07T03:21:50.889Z,11.25
2019-06-07T03:22:53.009Z,11.25
2019-06-07T03:23:51.330Z,16.88
2019-06-07T03:24:51.549Z,16.88
2019-06-07T03:25:53.522Z,16.88
2019-06-07T03:27:53.992Z,16.88
2019-06-07T03:28:53.999Z,16.88
2019-06-07T03:29:52.461Z,22.50
2019-06-07T03:31:01.964Z,22.50
2019-06-07T03:31:52.870Z,22.50
2019-06-07T03:32:53.085Z,22.50
2019-06-07T03:33:53.301Z,22.50
2019-06-07T03:34:53.504Z,22.50
2019-06-07T03:35:53.712Z,22.50
2019-06-07T03:36:53.931Z,22.50
2019-06-07T03:37:56.004Z,22.50
2019-06-07T03:38:54.338Z,22.50
2019-06-07T03:39:54.552Z,28.13
2019-06-07T03:40:56.496Z,28.13
2019-06-07T03:42:05.664Z,28.13
2019-06-07T03:42:55.082Z,28.13
2019-06-07T03:43:55.299Z,28.13
2019-06-07T03:44:55.516Z,33.75
2019-06-07T03:45:57.501Z,33.75
2019-06-07T03:46:55.998Z,33.75
2019-06-07T03:47:56.174Z,33.75
2019-06-07T03:48:58.028Z,33.75
2019-06-07T03:49:56.607Z,33.75
2019-06-07T03:51:04.586Z,33.75
2019-06-07T03:51:59.007Z,39.38
2019-06-07T03:52:57.216Z,33.75
2019-06-07T03:53:59.022Z,33.75
2019-06-07T03:54:57.602Z,39.38
2019-06-07T03:55:57.814Z,39.38
2019-06-07T03:56:58.031Z,45.00
2019-06-07T03:58:30.645Z,45.00
2019-06-07T03:58:58.465Z,45.00
2019-06-07T03:59:58.665Z,39.38
2019-06-07T04:01:02.150Z,39.38
2019-06-07T04:01:59.083Z,39.38
2019-06-07T04:02:59.319Z,39.38
2019-06-07T04:03:59.494Z,45.00
2019-06-07T04:04:59.704Z,45.00
2019-06-07T04:05:59.922Z,50.63
2019-06-07T04:07:01.217Z,50.63
2019-06-07T04:08:00.341Z,50.63
2019-06-07T04:09:01.564Z,56.25
2019-06-07T04:10:00.785Z,56.25
2019-06-07T04:11:05.546Z,56.25
2019-06-07T04:12:01.217Z,61.88
2019-06-07T04:13:01.406Z,61.88
2019-06-07T04:14:01.617Z,61.88
2019-06-07T04:15:01.869Z,67.50
2019-06-07T04:16:02.059Z,67.50
2019-06-07T04:17:03.999Z,67.50
2019-06-07T04:18:04.056Z,67.50
2019-06-07T04:19:04.521Z,67.50
2019-06-07T04:20:04.531Z,67.50
2019-06-07T04:21:02.987Z,73.13
2019-06-07T04:22:03.165Z,73.13
2019-06-07T04:23:25.092Z,73.13
2019-06-07T04:24:05.004Z,78.75
2019-06-07T04:25:03.587Z,78.75
2019-06-07T04:26:05.516Z,78.75
2019-06-07T04:27:03.985Z,78.75
2019-06-07T04:28:04.183Z,84.38
2019-06-07T04:30:07.743Z,90.00
2019-06-07T04:31:04.829Z,95.63
2019-06-07T04:32:07.006Z,95.63
2019-06-07T04:33:05.229Z,95.63
2019-06-07T04:34:05.342Z,95.63
2019-06-07T04:35:05.549Z,101.25
2019-06-07T04:36:05.755Z,106.88
2019-06-07T04:37:05.990Z,112.50
2019-06-07T04:38:06.199Z,112.50
2019-06-07T04:39:06.443Z,118.13
2019-06-07T04:40:06.537Z,123.75
2019-06-07T04:41:06.776Z,123.75
2019-06-07T04:42:08.497Z,123.75
2019-06-07T04:43:07.080Z,129.38
2019-06-07T04:44:07.277Z,129.38
2019-06-07T04:45:29.226Z,129.38
2019-06-07T04:46:11.513Z,135.00
2019-06-07T04:47:07.850Z,140.63
2019-06-07T04:48:08.053Z,146.25
2019-06-07T04:49:08.256Z,151.88
2019-06-07T04:50:08.468Z,151.88
2019-06-07T04:51:08.708Z,151.88
2019-06-07T04:52:08.911Z,157.50
2019-06-07T04:53:09.100Z,157.50
2019-06-07T04:54:09.313Z,157.50
2019-06-07T04:55:12.525Z,157.50
2019-06-07T04:56:13.503Z,146.25
2019-06-07T04:57:11.500Z,151.88
2019-06-07T04:58:10.089Z,151.88
2019-06-07T04:59:12.003Z,157.50
2019-06-07T05:00:22.670Z,163.13
2019-06-07T05:01:26.272Z,174.38
2019-06-07T05:02:10.900Z,191.25
2019-06-07T05:03:11.108Z,191.25
2019-06-07T05:04:13.001Z,185.63
2019-06-07T05:05:11.451Z,185.63
2019-06-07T05:06:13.516Z,191.25
2019-06-07T05:07:11.869Z,202.50
2019-06-07T05:08:27.399Z,213.75
2019-06-07T05:09:12.282Z,219.38
2019-06-07T05:10:12.503Z,219.38
2019-06-07T05:11:12.711Z,219.38
2019-06-07T05:12:12.923Z,225.00
2019-06-07T05:13:13.140Z,219.38
2019-06-07T05:14:13.341Z,225.00
2019-06-07T05:15:13.552Z,213.75
2019-06-07T05:16:15.501Z,208.13
2019-06-07T05:17:15.509Z,219.38
2019-06-07T05:18:14.113Z,213.75
2019-06-07T05:19:14.312Z,208.13
2019-06-07T05:20:16.094Z,208.13
2019-06-07T05:21:16.502Z,213.75
2019-06-07T05:22:14.902Z,213.75
2019-06-07T05:23:59.304Z,219.38
2019-06-07T05:24:15.076Z,230.63
2019-06-07T05:25:17.079Z,236.25
2019-06-07T05:26:15.471Z,230.63
2019-06-07T05:27:15.675Z,225.00
2019-06-07T05:28:15.893Z,225.00
2019-06-07T05:29:16.108Z,225.00
2019-06-07T05:30:57.907Z,225.00
2019-06-07T05:31:20.504Z,225.00
2019-06-07T05:32:16.716Z,213.75
2019-06-07T05:33:16.930Z,208.13
2019-06-07T05:34:17.192Z,219.38
2019-06-07T05:35:17.397Z,219.38
2019-06-07T05:36:17.559Z,219.38
2019-06-07T05:37:17.785Z,241.88
2019-06-07T05:38:21.504Z,270.00
2019-06-07T05:39:18.215Z,286.88
2019-06-07T05:40:18.429Z,292.50
2019-06-07T05:41:18.632Z,309.38
2019-06-07T05:42:18.843Z,303.75
2019-06-07T05:43:21.000Z,303.75
2019-06-07T05:44:21.020Z,315.00
2019-06-07T05:45:19.348Z,315.00
2019-06-07T05:46:19.582Z,315.00
2019-06-07T05:47:19.815Z,309.38
2019-06-07T05:48:20.004Z,303.75
2019-06-07T05:49:21.239Z,281.25
2019-06-07T05:50:39.207Z,286.88
2019-06-07T05:51:20.632Z,298.13
2019-06-07T05:52:23.516Z,315.00
2019-06-07T05:53:20.974Z,303.75
2019-06-07T05:54:21.209Z,298.13
2019-06-07T05:55:21.314Z,326.25
2019-06-07T05:56:21.578Z,348.75
2019-06-07T05:57:21.752Z,388.13
2019-06-07T05:58:21.964Z,433.13
2019-06-07T05:59:22.207Z,450.00
2019-06-07T06:00:22.288Z,472.50
2019-06-07T06:01:45.104Z,500.63
2019-06-07T06:02:24.762Z,523.13
2019-06-07T06:03:22.925Z,551.25
2019-06-07T06:04:23.147Z,534.38
2019-06-07T06:05:33.381Z,545.63
2019-06-07T06:06:23.549Z,624.38
2019-06-07T06:07:23.760Z,748.13
2019-06-07T06:08:23.973Z,781.88
2019-06-07T06:09:26.018Z,748.13
2019-06-07T06:10:24.347Z,630.00
2019-06-07T06:11:43.173Z,646.88
2019-06-07T06:12:34.722Z,540.00
2019-06-07T06:13:24.928Z,466.88
2019-06-07T06:14:25.137Z,405.00
2019-06-07T06:15:41.823Z,376.88
2019-06-07T06:16:25.551Z,382.50
2019-06-07T06:17:25.799Z,382.50
2019-06-07T06:18:27.504Z,343.13
2019-06-07T06:19:26.208Z,331.88
2019-06-07T06:20:32.892Z,309.38
2019-06-07T06:21:26.639Z,343.13
2019-06-07T06:22:26.841Z,360.00
2019-06-07T06:23:27.060Z,331.88
2019-06-07T06:24:27.267Z,343.13
2019-06-07T06:25:32.972Z,354.38
2019-06-07T06:26:27.682Z,348.75
2019-06-07T06:28:03.226Z,343.13
2019-06-07T06:28:30.779Z,365.63
2019-06-07T06:29:28.273Z,410.63
2019-06-07T06:30:28.483Z,405.00
2019-06-07T06:31:33.357Z,416.25
2019-06-07T06:32:41.947Z,416.25
2019-06-07T06:33:34.450Z,410.63
2019-06-07T06:34:31.025Z,399.38
2019-06-07T06:35:29.369Z,416.25
2019-06-07T06:36:29.573Z,427.50
2019-06-07T06:37:29.787Z,433.13
2019-06-07T06:38:30.001Z,433.13
2019-06-07T06:39:32.003Z,466.88
2019-06-07T06:40:30.343Z,534.38
2019-06-07T06:41:30.558Z,568.13
2019-06-07T06:42:30.771Z,630.00
2019-06-07T06:43:32.512Z,686.25
2019-06-07T06:44:31.094Z,736.88
2019-06-07T06:45:31.306Z,731.25
2019-06-07T06:46:38.703Z,753.75
2019-06-07T06:47:33.505Z,703.13
2019-06-07T06:48:31.836Z,669.38
2019-06-07T06:49:32.038Z,686.25
2019-06-07T06:50:32.253Z,725.63
2019-06-07T06:51:32.526Z,658.13
2019-06-07T06:52:32.609Z,607.50
2019-06-07T06:53:34.506Z,585.00
2019-06-07T06:54:40.614Z,545.63
2019-06-07T06:55:34.470Z,534.38
2019-06-07T06:56:33.302Z,607.50
2019-06-07T06:57:33.511Z,663.75
2019-06-07T06:59:18.635Z,697.50
2019-06-07T06:59:39.329Z,765.00
2019-06-07T07:00:46.394Z,832.50
2019-06-07T07:01:34.332Z,922.50
2019-06-07T07:02:34.555Z,995.63
2019-06-07T07:04:06.220Z,1040.63
2019-06-07T07:04:36.504Z,1057.50
2019-06-07T07:05:35.081Z,1164.38
2019-06-07T07:06:37.045Z,1006.88
2019-06-07T07:07:35.621Z,1057.50
2019-06-07T07:08:37.510Z,905.63
2019-06-07T07:09:35.738Z,804.38
2019-06-07T07:10:35.967Z,860.63
2019-06-07T07:11:52.508Z,1141.88
2019-06-07T07:12:38.017Z,1113.75
2019-06-07T07:13:36.584Z,1012.50
2019-06-07T07:14:36.786Z,1001.25
2019-06-07T07:15:37.164Z,883.13
2019-06-07T07:16:37.217Z,1192.50
2019-06-07T07:17:52.712Z,1389.38
2019-06-07T07:18:39.515Z,1389.38
2019-06-07T07:19:42.559Z,1170.00
2019-06-07T07:20:37.973Z,1226.25
2019-06-07T07:21:38.197Z,995.63
2019-06-07T07:22:42.759Z,1158.75
2019-06-07T07:23:38.610Z,1524.38
2019-06-07T07:24:41.817Z,1535.63
2019-06-07T07:25:42.775Z,1170.00
2019-06-07T07:26:39.109Z,1125.00
2019-06-07T07:27:39.330Z,1006.88
2019-06-07T07:28:39.541Z,1006.88
2019-06-07T07:29:43.789Z,1046.25
2019-06-07T07:30:39.961Z,1170.00
2019-06-07T07:31:43.009Z,2328.75
2019-06-07T07:32:46.478Z,2334.38
2019-06-07T07:34:24.073Z,2919.38
2019-06-07T07:34:46.228Z,2182.50
2019-06-07T07:35:40.921Z,3009.38
2019-06-07T07:36:48.302Z,2469.38
2019-06-07T07:37:41.347Z,2913.75
2019-06-07T07:39:06.661Z,3144.38
2019-06-07T07:39:41.760Z,2334.38
2019-06-07T07:42:21.638Z,1665.00
2019-06-07T07:43:17.474Z,3054.38
2019-06-07T07:44:22.018Z,3183.75
2019-06-07T07:45:20.982Z,2829.38
2019-06-07T07:46:29.019Z,1231.88
2019-06-07T07:47:14.643Z,1777.50
2019-06-07T07:48:18.806Z,1614.38
2019-06-07T07:49:15.634Z,1417.50
2019-06-07T07:50:16.448Z,1755.00
2019-06-07T07:51:17.031Z,1057.50
2019-06-07T07:52:17.478Z,1130.63
2019-06-07T07:53:15.672Z,1125.00
2019-06-07T07:54:17.478Z,1327.50
2019-06-07T07:55:20.031Z,1316.25
2019-06-07T07:56:17.402Z,1530.00
2019-06-07T07:57:24.250Z,1575.00
2019-06-07T07:58:18.486Z,1625.63
2019-06-07T07:59:18.482Z,1198.13
2019-06-07T08:00:49.431Z,1029.38
2019-06-07T08:01:19.964Z,995.63
2019-06-07T08:02:18.981Z,1057.50
2019-06-07T08:03:17.478Z,1136.25
2019-06-07T08:04:17.701Z,1119.38
2019-06-07T08:05:25.592Z,1108.13
2019-06-07T08:06:19.981Z,1068.75
2019-06-07T08:07:19.985Z,1040.63
2019-06-07T08:08:19.339Z,1175.63
2019-06-07T08:09:21.433Z,1648.13
2019-06-07T08:10:22.567Z,1378.13
2019-06-07T08:11:39.985Z,1895.63
2019-06-07T08:12:19.366Z,2407.50
2019-06-07T08:13:26.394Z,3256.88
2019-06-07T08:14:23.856Z,3571.88
2019-06-07T08:15:20.665Z,3785.63
2019-06-07T08:16:21.533Z,2469.38
2019-06-07T08:17:21.483Z,1113.75
2019-06-07T08:18:27.934Z,1102.50
2019-06-07T08:19:21.982Z,1192.50
2019-06-07T08:20:21.982Z,1316.25
2019-06-07T08:21:26.221Z,1451.25
2019-06-07T08:22:22.524Z,2199.38
2019-06-07T08:23:21.943Z,1141.88
2019-06-07T08:24:21.183Z,1051.88
2019-06-07T08:25:21.392Z,1659.38
2019-06-07T08:26:21.608Z,1445.63
2019-06-07T08:27:26.236Z,1670.63
2019-06-07T08:28:24.452Z,1006.88
2019-06-07T08:29:22.184Z,1035.00
2019-06-07T08:31:22.618Z,1040.63
2019-06-07T08:32:24.530Z,1040.63
2019-06-07T08:33:27.218Z,1108.13
2019-06-07T08:34:25.032Z,1248.75
2019-06-07T08:36:40.675Z,1355.63
2019-06-07T08:36:40.836Z,1395.00
2019-06-07T08:38:13.595Z,1423.13
2019-06-07T08:38:48.090Z,1552.50
2019-06-07T08:39:25.083Z,1968.75
2019-06-07T08:40:28.106Z,1575.00
2019-06-07T08:41:24.408Z,1445.63
2019-06-07T08:42:37.070Z,1473.75
2019-06-07T08:43:31.842Z,1704.38
2019-06-07T08:44:25.751Z,3358.13
2019-06-07T08:45:25.965Z,3166.88
2019-06-07T08:46:25.247Z,4055.63
2019-06-07T08:47:26.395Z,3943.13
2019-06-07T08:48:28.231Z,3234.38
2019-06-07T08:49:26.769Z,3723.75
2019-06-07T08:50:27.534Z,3886.88
2019-06-07T08:51:30.007Z,3870.00
2019-06-07T08:52:26.346Z,3847.50
2019-06-07T08:53:28.484Z,3583.13
2019-06-07T08:54:29.450Z,3330.00
2019-06-07T08:55:29.937Z,3926.25
2019-06-07T08:56:30.988Z,3982.50
2019-06-07T08:57:27.349Z,4185.00
2019-06-07T08:58:29.026Z,3318.75
2019-06-07T08:59:28.367Z,3735.00
2019-06-07T09:00:45.262Z,3206.25
2019-06-07T09:01:29.511Z,4083.75
2019-06-07T09:02:31.073Z,4089.38
2019-06-07T09:03:29.989Z,3706.88
2019-06-07T09:04:28.445Z,3965.63
2019-06-07T09:05:31.563Z,1884.38
2019-06-07T09:07:29.988Z,3465.00
2019-06-07T09:08:32.988Z,4083.75
2019-06-07T09:09:31.203Z,3560.63
2019-06-07T09:10:29.651Z,3830.63
2019-06-07T09:11:37.506Z,3853.13
2019-06-07T09:12:33.990Z,3858.75
2019-06-07T09:13:33.339Z,3926.25
2019-06-07T09:14:30.574Z,4005.00
2019-06-07T09:15:32.498Z,3684.38
2019-06-07T09:16:32.516Z,4083.75
2019-06-07T09:17:30.989Z,1479.38
2019-06-07T09:18:42.697Z,1552.50
2019-06-07T09:19:38.994Z,4111.88
2019-06-07T09:20:36.970Z,3886.88
2019-06-07T09:21:34.519Z,3538.13
2019-06-07T09:22:33.975Z,2148.75
2019-06-07T09:23:33.988Z,3746.25
2019-06-07T09:24:32.950Z,3768.75
2019-06-07T09:25:52.183Z,3881.25
2019-06-07T09:26:32.782Z,3920.63
2019-06-07T09:27:34.493Z,3903.75
2019-06-07T09:28:33.205Z,3678.75
2019-06-07T09:29:33.419Z,3279.38
2019-06-07T09:30:33.680Z,1788.75
2019-06-07T09:31:52.915Z,3886.88
2019-06-07T09:32:35.151Z,3915.00
2019-06-07T09:33:34.181Z,4027.50
2019-06-07T09:34:34.397Z,3976.88
2019-06-07T09:35:38.490Z,3993.75
2019-06-07T09:36:34.830Z,3971.25
2019-06-07T09:38:17.661Z,3982.50
2019-06-07T09:38:35.241Z,3993.75
2019-06-07T09:39:36.838Z,3960.00
2019-06-07T09:40:37.493Z,4038.75
2019-06-07T09:41:47.328Z,3993.75
2019-06-07T09:42:36.858Z,4005.00
2019-06-07T09:44:36.479Z,4005.00
2019-06-07T09:45:52.503Z,4038.75
2019-06-07T09:46:38.538Z,4117.50
2019-06-07T09:47:39.473Z,4123.13
2019-06-07T09:49:37.437Z,4061.25
2019-06-07T09:50:41.044Z,4072.50
2019-06-07T09:51:41.940Z,4038.75
2019-06-07T09:52:58.049Z,3999.38
2019-06-07T09:53:38.993Z,3993.75
2019-06-07T09:55:05.892Z,3993.75
2019-06-07T09:55:38.366Z,3943.13
2019-06-07T09:56:42.509Z,3993.75
2019-06-07T09:57:38.762Z,3993.75
2019-06-07T09:58:54.600Z,3971.25
2019-06-07T09:59:39.197Z,3999.38
2019-06-07T10:00:42.054Z,3999.38
2019-06-07T10:01:40.494Z,3926.25
2019-06-07T10:02:41.531Z,3071.25
2019-06-07T10:03:40.952Z,3943.13
2019-06-07T10:04:41.991Z,3948.75
2019-06-07T10:05:42.041Z,3999.38
2019-06-07T10:06:44.003Z,4016.25
2019-06-07T10:08:00.040Z,3960.00
2019-06-07T10:09:56.924Z,3999.38
2019-06-07T10:10:09.805Z,3960.00
2019-06-07T10:10:43.386Z,4027.50
2019-06-07T10:11:41.404Z,4050.00
2019-06-07T10:13:04.048Z,3903.75
2019-06-07T10:13:43.495Z,3903.75
2019-06-07T10:14:46.460Z,3993.75
2019-06-07T10:15:48.203Z,3993.75
2019-06-07T10:16:47.523Z,3960.00
2019-06-07T10:17:42.553Z,3886.88
2019-06-07T10:18:46.509Z,3892.50
2019-06-07T10:19:44.500Z,3870.00
2019-06-07T10:20:44.248Z,3853.13
2019-06-07T10:21:50.024Z,3796.88
2019-06-07T10:22:45.061Z,3819.38
2019-06-07T10:23:43.650Z,3836.25
2019-06-07T10:24:44.478Z,3802.50
2019-06-07T10:25:55.535Z,3825.00
2019-06-07T10:26:45.002Z,3785.63
2019-06-07T10:27:44.357Z,3819.38
2019-06-07T10:28:44.590Z,3830.63
2019-06-07T10:29:45.851Z,2964.38
2019-06-07T10:30:46.521Z,1631.25
2019-06-07T10:31:46.161Z,3375.00
2019-06-07T10:32:47.055Z,3538.13
2019-06-07T10:33:47.984Z,3706.88
2019-06-07T10:34:45.587Z,3690.00
2019-06-07T10:35:47.509Z,3510.00
2019-06-07T10:36:46.005Z,3645.00
2019-06-07T10:37:50.014Z,3673.13
2019-06-07T10:38:47.001Z,3656.25
2019-06-07T10:39:48.914Z,3661.88
2019-06-07T10:40:46.710Z,3650.63
2019-06-07T10:41:48.507Z,3521.25
2019-06-07T10:42:47.092Z,3301.88
2019-06-07T10:44:03.339Z,2981.25
2019-06-07T10:44:48.458Z,2463.75
2019-06-07T10:45:51.502Z,2480.63
2019-06-07T10:46:49.456Z,2008.13
2019-06-07T10:47:48.082Z,1693.13
2019-06-07T10:48:48.262Z,1378.13
2019-06-07T10:49:50.499Z,1085.63
2019-06-07T10:51:11.422Z,939.38
2019-06-07T10:51:50.975Z,911.25
2019-06-07T10:52:50.998Z,905.63
2019-06-07T10:53:51.015Z,905.63
2019-06-07T10:54:52.955Z,900.00
2019-06-07T10:55:51.504Z,900.00
2019-06-07T10:56:50.850Z,911.25
2019-06-07T10:57:51.133Z,961.88
2019-06-07T10:58:51.454Z,1170.00
2019-06-07T10:59:50.446Z,1445.63
2019-06-07T11:00:52.863Z,1771.88
2019-06-07T11:01:52.870Z,2148.75
2019-06-07T11:02:55.304Z,2418.75
2019-06-07T11:03:53.011Z,2632.50
2019-06-07T11:04:52.952Z,2688.75
2019-06-07T11:05:53.479Z,2581.88
2019-06-07T11:06:53.497Z,2345.63
2019-06-07T11:07:53.504Z,2013.75
2019-06-07T11:08:54.019Z,1681.88
2019-06-07T11:10:06.430Z,1383.75
2019-06-07T11:10:55.020Z,1136.25
2019-06-07T11:11:54.522Z,950.63
2019-06-07T11:12:52.837Z,860.63
2019-06-07T11:13:57.520Z,838.13
2019-06-07T11:14:53.961Z,826.88
2019-06-07T11:15:53.480Z,821.25
2019-06-07T11:17:07.298Z,815.63
2019-06-07T11:17:57.528Z,826.88
2019-06-07T11:18:55.542Z,810.00
2019-06-07T11:19:55.508Z,804.38
2019-06-07T11:20:58.002Z,804.38
2019-06-07T11:21:56.008Z,798.75
2019-06-07T11:22:58.514Z,798.75
2019-06-07T11:23:56.819Z,815.63
2019-06-07T11:24:57.002Z,826.88
2019-06-07T11:26:03.063Z,832.50
2019-06-07T11:26:57.017Z,832.50
2019-06-07T11:27:57.003Z,832.50
2019-06-07T11:28:56.617Z,855.00
2019-06-07T11:30:00.423Z,866.25
2019-06-07T11:30:57.516Z,905.63
2019-06-07T11:32:17.102Z,748.13
2019-06-07T11:33:00.064Z,815.63
2019-06-07T11:33:58.024Z,849.38
2019-06-07T11:34:58.548Z,849.38
2019-06-07T11:35:58.226Z,866.25
2019-06-07T11:36:59.157Z,916.88
2019-06-07T11:38:02.950Z,984.38
2019-06-07T11:39:10.932Z,855.00
2019-06-07T11:40:06.494Z,871.88
2019-06-07T11:41:00.456Z,871.88
2019-06-07T11:41:59.506Z,883.13
2019-06-07T11:43:20.069Z,871.88
2019-06-07T11:44:00.058Z,843.75
2019-06-07T11:44:59.512Z,838.13
2019-06-07T11:46:02.511Z,838.13
2019-06-07T11:47:00.544Z,871.88
2019-06-07T11:48:01.895Z,916.88
2019-06-07T11:49:20.247Z,978.75
2019-06-07T11:49:59.308Z,866.25
2019-06-07T11:50:59.793Z,984.38
2019-06-07T11:51:59.802Z,950.63
2019-06-07T11:53:08.561Z,871.88
2019-06-07T11:54:00.059Z,871.88
2019-06-07T11:55:00.311Z,838.13
2019-06-07T11:56:00.479Z,821.25
2019-06-07T11:57:08.777Z,815.63
2019-06-07T11:58:02.543Z,815.63
2019-06-07T11:59:04.550Z,810.00
2019-06-07T12:00:09.386Z,804.38
2019-06-07T12:01:03.052Z,798.75
2019-06-07T12:02:03.009Z,798.75
2019-06-07T12:03:01.630Z,798.75
2019-06-07T12:04:05.518Z,798.75
2019-06-07T12:05:01.975Z,798.75
2019-06-07T12:06:04.017Z,793.13
2019-06-07T12:07:02.373Z,793.13
2019-06-07T12:08:07.964Z,793.13
2019-06-07T12:09:04.517Z,793.13
2019-06-07T12:10:05.463Z,793.13
2019-06-07T12:11:04.716Z,787.50
2019-06-07T12:12:08.176Z,793.13
2019-06-07T12:13:12.232Z,793.13
2019-06-07T12:14:04.665Z,787.50
2019-06-07T12:15:05.523Z,787.50
2019-06-07T12:16:05.516Z,793.13
2019-06-07T12:17:09.004Z,793.13
2019-06-07T12:18:06.009Z,793.13
2019-06-07T12:19:05.471Z,798.75
2019-06-07T12:20:08.699Z,798.75
2019-06-07T12:21:09.399Z,793.13
2019-06-07T12:22:10.010Z,793.13
2019-06-07T12:23:09.962Z,793.13
2019-06-07T12:24:10.318Z,787.50
2019-06-07T12:25:08.482Z,793.13
2019-06-07T12:26:07.515Z,787.50
2019-06-07T12:27:08.018Z,787.50
2019-06-07T12:28:08.063Z,793.13
2019-06-07T12:29:07.404Z,793.13
2019-06-07T12:30:10.034Z,793.13
2019-06-07T12:31:08.511Z,793.13
2019-06-07T12:32:08.522Z,781.88
2019-06-07T12:33:09.016Z,787.50
2019-06-07T12:34:07.444Z,787.50
2019-06-07T12:35:07.632Z,781.88
2019-06-07T12:36:07.879Z,787.50
2019-06-07T12:37:11.711Z,781.88
2019-06-07T12:38:24.051Z,781.88
2019-06-07T12:39:10.067Z,781.88
2019-06-07T12:40:10.159Z,781.88
2019-06-07T12:41:10.516Z,781.88
2019-06-07T12:42:10.539Z,776.25
2019-06-07T12:43:09.016Z,776.25
2019-06-07T12:44:16.590Z,781.88
2019-06-07T12:45:12.841Z,776.25